VIR372 EGLL-FIMP
Flight info
| Callsign | VIR372 |
|---|---|
| Flight time | N/A |
| Altitude | 33000 |
| Route | DET L6 DVR L9 KONAN UL607 REMBA M624 DIK N852 SUTAL DCT GTQ DCT BEGAR DCT ELMUR DCT RESIA DCT LATAN DCT SALUN N705 MMA L613 KIVIL N710 TAKRI P751 AST/N0477F350 P751 LXR M999 JDW G650 RASKA/N0489F340 G650 ULONI/N0484F350 UV790 SB DCT DEKRA/N0482F360 DCT DTI/N0484F350 UR775 MOGDU/N0478F370 UN304 APKAK/N0480F360 UN304 DENLI/N0477F370 UN304 MAEVA UL433 APKOT DCT TIBAG TIBAG2E |
| Aircraft | A346/H-SDE2E3FGHIJ3J4J5M1RWXY/LB1D1 |
Departure
| Time | N/A |
|---|---|
| Airport | London Heathrow Airport (EGLL) |
Arrival
| Time | 2026-05-09 09:09 |
|---|---|
| Airport | Sir Seewoosagur Ramgoolam International Airport (FIMP) |
| Time | Latitude | Longitude | Altitude | Speed | Heading |
|---|---|---|---|---|---|
| 2026-05-09 08:18 | -16.51780 | 53.48363 | 36056 ft | 477 kts | 137° |
| 2026-05-09 08:18 | -16.54190 | 53.50871 | 36056 ft | 477 kts | 137° |
| 2026-05-09 08:19 | -16.58936 | 53.55805 | 36055 ft | 477 kts | 137° |
| 2026-05-09 08:19 | -16.63718 | 53.60770 | 36055 ft | 477 kts | 137° |
| 2026-05-09 08:20 | -16.68477 | 53.65710 | 36056 ft | 477 kts | 137° |
| 2026-05-09 08:20 | -16.73257 | 53.70674 | 36056 ft | 477 kts | 137° |
| 2026-05-09 08:21 | -16.78006 | 53.75612 | 36059 ft | 477 kts | 137° |
| 2026-05-09 08:21 | -16.82765 | 53.80564 | 36065 ft | 477 kts | 137° |
| 2026-05-09 08:22 | -16.87524 | 53.85519 | 36049 ft | 475 kts | 137° |
| 2026-05-09 08:22 | -16.89877 | 53.87970 | 35780 ft | 470 kts | 137° |
| 2026-05-09 08:22 | -16.92219 | 53.90411 | 35218 ft | 473 kts | 137° |
| 2026-05-09 08:23 | -16.94579 | 53.92870 | 34569 ft | 475 kts | 137° |
| 2026-05-09 08:23 | -16.96943 | 53.95334 | 34161 ft | 476 kts | 137° |
| 2026-05-09 08:23 | -16.99276 | 53.97766 | 34026 ft | 477 kts | 137° |
| 2026-05-09 08:23 | -17.01635 | 54.00227 | 33991 ft | 478 kts | 137° |
| 2026-05-09 08:24 | -17.06420 | 54.05222 | 33944 ft | 479 kts | 137° |
| 2026-05-09 08:24 | -17.11191 | 54.10208 | 33937 ft | 479 kts | 137° |
| 2026-05-09 08:25 | -17.15958 | 54.15192 | 34070 ft | 480 kts | 137° |
| 2026-05-09 08:25 | -17.20714 | 54.20168 | 34066 ft | 479 kts | 137° |
| 2026-05-09 08:26 | -17.25471 | 54.25151 | 34074 ft | 478 kts | 137° |
| 2026-05-09 08:26 | -17.30190 | 54.30099 | 34088 ft | 472 kts | 137° |
| 2026-05-09 08:27 | -17.34852 | 54.34991 | 34068 ft | 467 kts | 137° |
| 2026-05-09 08:27 | -17.39489 | 54.39861 | 34064 ft | 463 kts | 137° |
| 2026-05-09 08:28 | -17.44121 | 54.44725 | 34097 ft | 471 kts | 138° |
| 2026-05-09 08:28 | -17.48790 | 54.49630 | 34074 ft | 476 kts | 138° |
| 2026-05-09 08:29 | -17.53487 | 54.54573 | 34072 ft | 476 kts | 138° |
| 2026-05-09 08:29 | -17.58201 | 54.59537 | 34072 ft | 476 kts | 138° |
| 2026-05-09 08:30 | -17.62918 | 54.64507 | 34070 ft | 477 kts | 138° |
| 2026-05-09 08:30 | -17.67595 | 54.69441 | 34069 ft | 477 kts | 137° |
| 2026-05-09 08:31 | -17.72309 | 54.74416 | 34071 ft | 477 kts | 137° |
| 2026-05-09 08:31 | -17.77007 | 54.79378 | 34072 ft | 477 kts | 137° |
| 2026-05-09 08:32 | -17.81714 | 54.84354 | 34072 ft | 477 kts | 137° |
| 2026-05-09 08:33 | -17.88775 | 54.91827 | 34073 ft | 478 kts | 137° |
| 2026-05-09 08:33 | -17.93490 | 54.96821 | 34073 ft | 478 kts | 137° |
| 2026-05-09 08:34 | -17.98195 | 55.01809 | 34074 ft | 478 kts | 137° |
| 2026-05-09 08:34 | -18.02904 | 55.06805 | 34074 ft | 479 kts | 137° |
| 2026-05-09 08:35 | -18.07629 | 55.11825 | 34079 ft | 480 kts | 137° |
| 2026-05-09 08:35 | -18.12326 | 55.16821 | 34082 ft | 481 kts | 137° |
| 2026-05-09 08:36 | -18.17054 | 55.21851 | 34078 ft | 481 kts | 137° |
| 2026-05-09 08:36 | -18.21760 | 55.26863 | 34076 ft | 482 kts | 137° |
| 2026-05-09 08:37 | -18.26514 | 55.31934 | 34079 ft | 482 kts | 137° |
| 2026-05-09 08:37 | -18.31269 | 55.37012 | 34088 ft | 482 kts | 137° |
| 2026-05-09 08:38 | -18.35982 | 55.42039 | 34097 ft | 483 kts | 137° |
| 2026-05-09 08:38 | -18.40711 | 55.47087 | 34100 ft | 483 kts | 137° |
| 2026-05-09 08:39 | -18.45457 | 55.52169 | 34099 ft | 483 kts | 137° |
| 2026-05-09 08:39 | -18.50234 | 55.57153 | 34095 ft | 482 kts | 140° |
| 2026-05-09 08:40 | -18.55157 | 55.62018 | 34038 ft | 480 kts | 140° |
| 2026-05-09 08:40 | -18.60043 | 55.66849 | 34083 ft | 473 kts | 140° |
| 2026-05-09 08:41 | -18.64908 | 55.71668 | 34119 ft | 481 kts | 139° |
| 2026-05-09 08:41 | -18.69787 | 55.76512 | 34108 ft | 483 kts | 139° |
| 2026-05-09 08:42 | -18.74690 | 55.81390 | 34104 ft | 483 kts | 139° |
| 2026-05-09 08:42 | -18.79596 | 55.86274 | 34103 ft | 483 kts | 139° |
| 2026-05-09 08:43 | -18.84534 | 55.91195 | 34018 ft | 475 kts | 140° |
| 2026-05-09 08:43 | -18.86942 | 55.93595 | 33511 ft | 478 kts | 140° |
| 2026-05-09 08:43 | -18.89412 | 55.96057 | 32893 ft | 481 kts | 140° |
| 2026-05-09 08:43 | -18.91880 | 55.98517 | 32199 ft | 484 kts | 139° |
| 2026-05-09 08:44 | -18.94337 | 56.00968 | 31517 ft | 485 kts | 139° |
| 2026-05-09 08:44 | -18.96806 | 56.03433 | 30862 ft | 485 kts | 139° |
| 2026-05-09 08:44 | -18.99266 | 56.05891 | 30219 ft | 484 kts | 139° |
| 2026-05-09 08:44 | -19.01733 | 56.08355 | 29529 ft | 484 kts | 139° |
| 2026-05-09 08:45 | -19.04200 | 56.10818 | 28824 ft | 483 kts | 139° |
| 2026-05-09 08:45 | -19.06663 | 56.13277 | 28149 ft | 483 kts | 139° |
| 2026-05-09 08:45 | -19.09125 | 56.15737 | 27446 ft | 484 kts | 138° |
| 2026-05-09 08:45 | -19.11589 | 56.18201 | 26798 ft | 482 kts | 138° |
| 2026-05-09 08:46 | -19.14020 | 56.20638 | 26340 ft | 476 kts | 138° |
| 2026-05-09 08:46 | -19.16418 | 56.23043 | 25829 ft | 474 kts | 137° |
| 2026-05-09 08:46 | -19.18825 | 56.25457 | 25345 ft | 469 kts | 137° |
| 2026-05-09 08:46 | -19.21183 | 56.27823 | 24884 ft | 464 kts | 137° |
| 2026-05-09 08:47 | -19.23497 | 56.30147 | 24418 ft | 460 kts | 137° |
| 2026-05-09 08:47 | -19.25809 | 56.32469 | 23974 ft | 456 kts | 137° |
| 2026-05-09 08:47 | -19.28100 | 56.34771 | 23543 ft | 451 kts | 137° |
| 2026-05-09 08:47 | -19.30394 | 56.37076 | 23117 ft | 446 kts | 137° |
| 2026-05-09 08:48 | -19.32614 | 56.39307 | 22706 ft | 442 kts | 137° |
| 2026-05-09 08:48 | -19.34864 | 56.41569 | 22288 ft | 437 kts | 137° |
| 2026-05-09 08:48 | -19.37045 | 56.43762 | 21881 ft | 433 kts | 136° |
| 2026-05-09 08:48 | -19.39218 | 56.45949 | 21493 ft | 429 kts | 136° |
| 2026-05-09 08:49 | -19.41403 | 56.48149 | 21091 ft | 426 kts | 136° |
| 2026-05-09 08:49 | -19.43540 | 56.50301 | 20688 ft | 423 kts | 136° |
| 2026-05-09 08:49 | -19.45686 | 56.52464 | 20276 ft | 420 kts | 136° |
| 2026-05-09 08:49 | -19.47803 | 56.54597 | 19870 ft | 417 kts | 136° |
| 2026-05-09 08:50 | -19.49901 | 56.56712 | 19461 ft | 414 kts | 136° |
| 2026-05-09 08:50 | -19.52001 | 56.58830 | 19046 ft | 412 kts | 136° |
| 2026-05-09 08:50 | -19.54072 | 56.60920 | 18634 ft | 409 kts | 136° |
| 2026-05-09 08:50 | -19.56125 | 56.62992 | 18212 ft | 406 kts | 136° |
| 2026-05-09 08:51 | -19.58155 | 56.65041 | 17720 ft | 397 kts | 136° |
| 2026-05-09 08:51 | -19.60170 | 56.67076 | 17364 ft | 394 kts | 136° |
| 2026-05-09 08:51 | -19.62149 | 56.69075 | 16986 ft | 391 kts | 136° |
| 2026-05-09 08:51 | -19.64111 | 56.71058 | 16598 ft | 388 kts | 136° |
| 2026-05-09 08:52 | -19.66079 | 56.73047 | 16201 ft | 385 kts | 136° |
| 2026-05-09 08:52 | -19.68026 | 56.75015 | 15842 ft | 383 kts | 136° |
| 2026-05-09 08:52 | -19.69962 | 56.76973 | 15452 ft | 384 kts | 136° |
| 2026-05-09 08:52 | -19.71909 | 56.78943 | 15027 ft | 383 kts | 136° |
| 2026-05-09 08:53 | -19.73852 | 56.80908 | 14616 ft | 381 kts | 135° |
| 2026-05-09 08:53 | -19.75770 | 56.82850 | 14216 ft | 379 kts | 135° |
| 2026-05-09 08:53 | -19.77669 | 56.84775 | 13821 ft | 376 kts | 135° |
| 2026-05-09 08:53 | -19.79571 | 56.86704 | 13423 ft | 374 kts | 135° |
| 2026-05-09 08:54 | -19.81457 | 56.88617 | 13027 ft | 371 kts | 135° |
| 2026-05-09 08:54 | -19.83330 | 56.90519 | 12631 ft | 368 kts | 135° |
| 2026-05-09 08:54 | -19.85185 | 56.92400 | 12238 ft | 365 kts | 135° |
| 2026-05-09 08:54 | -19.87021 | 56.94264 | 11846 ft | 363 kts | 135° |
| 2026-05-09 08:55 | -19.88843 | 56.96114 | 11455 ft | 360 kts | 135° |
| 2026-05-09 08:55 | -19.90681 | 56.97980 | 11088 ft | 355 kts | 135° |
| 2026-05-09 08:55 | -19.92452 | 56.99779 | 10878 ft | 345 kts | 135° |
| 2026-05-09 08:55 | -19.94168 | 57.01523 | 10767 ft | 332 kts | 135° |
| 2026-05-09 08:56 | -19.95810 | 57.03192 | 10657 ft | 319 kts | 135° |
| 2026-05-09 08:56 | -19.97388 | 57.04797 | 10554 ft | 307 kts | 135° |
| 2026-05-09 08:56 | -19.98907 | 57.06342 | 10440 ft | 296 kts | 134° |
| 2026-05-09 08:56 | -20.00392 | 57.07854 | 10338 ft | 285 kts | 134° |
| 2026-05-09 08:57 | -20.01804 | 57.09291 | 10259 ft | 274 kts | 134° |
| 2026-05-09 08:57 | -20.03164 | 57.10677 | 10193 ft | 268 kts | 134° |
| 2026-05-09 08:57 | -20.04510 | 57.12051 | 10130 ft | 265 kts | 134° |
| 2026-05-09 08:57 | -20.05845 | 57.13414 | 9893 ft | 266 kts | 134° |
| 2026-05-09 08:58 | -20.07201 | 57.14801 | 9618 ft | 268 kts | 134° |
| 2026-05-09 08:58 | -20.08556 | 57.16182 | 9345 ft | 267 kts | 134° |
| 2026-05-09 08:58 | -20.09900 | 57.17549 | 9075 ft | 266 kts | 134° |
| 2026-05-09 08:58 | -20.11236 | 57.18912 | 8797 ft | 263 kts | 134° |
| 2026-05-09 08:59 | -20.12569 | 57.20274 | 8536 ft | 262 kts | 134° |
| 2026-05-09 08:59 | -20.13900 | 57.21634 | 8306 ft | 262 kts | 134° |
| 2026-05-09 08:59 | -20.15210 | 57.22969 | 8033 ft | 261 kts | 134° |
| 2026-05-09 08:59 | -20.16537 | 57.24322 | 7769 ft | 259 kts | 134° |
| 2026-05-09 09:00 | -20.17885 | 57.25629 | 7365 ft | 263 kts | 136° |
| 2026-05-09 09:00 | -20.19280 | 57.26913 | 7017 ft | 262 kts | 137° |
| 2026-05-09 09:00 | -20.20652 | 57.28158 | 6864 ft | 253 kts | 137° |
| 2026-05-09 09:00 | -20.21978 | 57.29355 | 6684 ft | 247 kts | 137° |
| 2026-05-09 09:01 | -20.23285 | 57.30542 | 6403 ft | 244 kts | 135° |
| 2026-05-09 09:01 | -20.24556 | 57.31749 | 6102 ft | 243 kts | 135° |
| 2026-05-09 09:01 | -20.25737 | 57.33024 | 5804 ft | 240 kts | 126° |
| 2026-05-09 09:01 | -20.26667 | 57.34481 | 5517 ft | 237 kts | 119° |
| 2026-05-09 09:02 | -20.27474 | 57.36001 | 5233 ft | 235 kts | 116° |
| 2026-05-09 09:02 | -20.28235 | 57.37532 | 5022 ft | 232 kts | 116° |
| 2026-05-09 09:02 | -20.28984 | 57.39080 | 5009 ft | 233 kts | 115° |
| 2026-05-09 09:02 | -20.29722 | 57.40617 | 5008 ft | 233 kts | 115° |
| 2026-05-09 09:03 | -20.30464 | 57.42166 | 5009 ft | 232 kts | 115° |
| 2026-05-09 09:03 | -20.31178 | 57.43662 | 4998 ft | 219 kts | 115° |
| 2026-05-09 09:03 | -20.31846 | 57.45065 | 4993 ft | 205 kts | 115° |
| 2026-05-09 09:03 | -20.32465 | 57.46363 | 5003 ft | 189 kts | 115° |
| 2026-05-09 09:04 | -20.33044 | 57.47578 | 5023 ft | 183 kts | 115° |
| 2026-05-09 09:04 | -20.33621 | 57.48786 | 4974 ft | 178 kts | 115° |
| 2026-05-09 09:04 | -20.34172 | 57.49934 | 4647 ft | 172 kts | 115° |
| 2026-05-09 09:04 | -20.34716 | 57.51074 | 4172 ft | 175 kts | 115° |
| 2026-05-09 09:05 | -20.35275 | 57.52242 | 3685 ft | 176 kts | 115° |
| 2026-05-09 09:05 | -20.35821 | 57.53376 | 3360 ft | 169 kts | 115° |
| 2026-05-09 09:05 | -20.36357 | 57.54492 | 3120 ft | 168 kts | 115° |
| 2026-05-09 09:05 | -20.36885 | 57.55594 | 2893 ft | 168 kts | 115° |
| 2026-05-09 09:06 | -20.37420 | 57.56711 | 2648 ft | 167 kts | 116° |
| 2026-05-09 09:06 | -20.37937 | 57.57810 | 2393 ft | 166 kts | 115° |
| 2026-05-09 09:06 | -20.38444 | 57.58906 | 2118 ft | 165 kts | 117° |
| 2026-05-09 09:06 | -20.38988 | 57.59994 | 1879 ft | 164 kts | 118° |
| 2026-05-09 09:07 | -20.39506 | 57.61076 | 1663 ft | 163 kts | 116° |
| 2026-05-09 09:07 | -20.40031 | 57.62150 | 1440 ft | 163 kts | 117° |
| 2026-05-09 09:07 | -20.40539 | 57.63230 | 1181 ft | 162 kts | 115° |
| 2026-05-09 09:07 | -20.41062 | 57.64302 | 914 ft | 161 kts | 116° |
| 2026-05-09 09:08 | -20.41577 | 57.65357 | 673 ft | 161 kts | 115° |
| 2026-05-09 09:08 | -20.42082 | 57.66408 | 432 ft | 159 kts | 116° |
| 2026-05-09 09:08 | -20.42593 | 57.67459 | 210 ft | 155 kts | 115° |
| 2026-05-09 09:08 | -20.42962 | 57.68229 | 183 ft | 74 kts | 117° |
| 2026-05-09 09:09 | -20.43082 | 57.68464 | 175 ft | 10 kts | 146° |
| 2026-05-09 09:09 | -20.43137 | 57.68453 | 175 ft | 8 kts | 206° |
| 2026-05-09 09:09 | -20.43194 | 57.68424 | 177 ft | 9 kts | 206° |
| 2026-05-09 09:09 | -20.43251 | 57.68393 | 179 ft | 8 kts | 206° |
| 2026-05-09 09:10 | -20.43288 | 57.68369 | 180 ft | 4 kts | 237° |
| 2026-05-09 09:10 | -20.43290 | 57.68328 | 181 ft | 6 kts | 287° |
| 2026-05-09 09:10 | -20.43264 | 57.68273 | 182 ft | 11 kts | 297° |
| 2026-05-09 09:10 | -20.43224 | 57.68190 | 185 ft | 14 kts | 297° |
| 2026-05-09 09:11 | -20.43164 | 57.68064 | 189 ft | 20 kts | 297° |
| 2026-05-09 09:11 | -20.43120 | 57.67974 | 193 ft | 9 kts | 297° |
| 2026-05-09 09:11 | -20.43102 | 57.67938 | 195 ft | 4 kts | 297° |
| 2026-05-09 09:11 | -20.43094 | 57.67914 | 197 ft | 2 kts | 273° |
| 2026-05-09 09:12 | -20.43102 | 57.67893 | 198 ft | 4 kts | 223° |
| 2026-05-09 09:12 | -20.43129 | 57.67873 | 200 ft | 5 kts | 212° |
| 2026-05-09 09:12 | -20.43155 | 57.67856 | 201 ft | 2 kts | 211° |